Time;durP1;ratioP1;P1;durP2;ratioP2;P2;SDS_P1;SDS_P2;PMS_P1;PMS_P2;Temp;Humidity;BMP_temperature;BMP_pressure;BME280_temperature;BME280_humidity;BME280_pressure;Samples;Min_cycle;Max_cycle;Signal;HPM_P1;HPM_P2
2023/06/06 00:00:37;;;;;;;7.10;3.67;;;12.60;99.90;;;;;;5014196;28;20453;-74
2023/06/06 00:03:04;;;;;;;6.45;3.08;;;12.60;99.90;;;;;;5016467;28;20026;-74
2023/06/06 00:05:31;;;;;;;6.63;3.43;;;12.60;99.90;;;;;;5015876;28;20026;-75
2023/06/06 00:07:56;;;;;;;6.72;3.40;;;12.60;99.90;;;;;;5031173;28;20022;-76
2023/06/06 00:10:22;;;;;;;9.57;3.47;;;12.60;99.90;;;;;;5016067;28;20095;-75
2023/06/06 00:12:48;;;;;;;6.97;3.17;;;12.50;99.90;;;;;;5016750;28;20034;-76
2023/06/06 00:15:15;;;;;;;9.43;4.25;;;12.50;99.90;;;;;;5014024;28;20034;-75
2023/06/06 00:17:44;;;;;;;9.07;3.95;;;12.40;99.90;;;;;;5016668;28;20114;-76
2023/06/06 00:20:11;;;;;;;7.30;3.92;;;12.40;99.90;;;;;;5015934;28;20081;-76
2023/06/06 00:22:38;;;;;;;6.40;3.92;;;12.40;99.90;;;;;;5014286;28;20026;-75
2023/06/06 00:25:06;;;;;;;9.77;4.18;;;12.40;99.90;;;;;;5015209;28;20391;-75
2023/06/06 00:27:36;;;;;;;10.95;4.55;;;12.30;99.90;;;;;;5014058;28;20042;-75
2023/06/06 00:30:03;;;;;;;9.50;4.05;;;12.30;99.90;;;;;;5016551;28;20109;-75
2023/06/06 00:32:28;;;;;;;7.10;4.28;;;12.30;99.90;;;;;;5015061;28;20049;-76
2023/06/06 00:34:55;;;;;;;7.80;3.90;;;12.30;99.90;;;;;;5015710;28;20062;-76
2023/06/06 00:37:22;;;;;;;5.20;3.97;;;12.20;99.90;;;;;;5016511;28;20038;-76
2023/06/06 00:39:47;;;;;;;9.93;4.57;;;12.20;99.90;;;;;;5016251;28;20033;-75
2023/06/06 00:42:13;;;;;;;11.85;4.45;;;12.10;99.90;;;;;;5014561;28;20041;-75
2023/06/06 00:44:39;;;;;;;6.60;4.13;;;12.10;99.90;;;;;;5015674;28;20034;-75
2023/06/06 00:47:05;;;;;;;9.65;5.13;;;12.00;99.90;;;;;;5015928;28;20041;-79
2023/06/06 00:49:30;;;;;;;8.90;4.90;;;12.00;99.90;;;;;;5015440;28;20025;-78
2023/06/06 00:51:58;;;;;;;12.00;3.95;;;12.00;99.90;;;;;;5016292;28;20072;-78
2023/06/06 00:54:25;;;;;;;10.55;4.90;;;12.00;99.90;;;;;;5015487;28;20036;-78
2023/06/06 00:56:51;;;;;;;9.40;4.70;;;12.00;99.90;;;;;;5016221;28;20394;-78
2023/06/06 00:59:18;;;;;;;12.43;4.13;;;12.00;99.90;;;;;;5014022;28;20037;-80
2023/06/06 01:01:47;;;;;;;11.00;3.80;;;12.00;99.90;;;;;;5015995;28;20026;-80
2023/06/06 01:04:15;;;;;;;6.80;4.30;;;12.00;99.90;;;;;;5014671;28;20030;-78
2023/06/06 01:06:41;;;;;;;8.35;4.30;;;11.90;99.90;;;;;;5034654;28;20033;-79
2023/06/06 01:09:11;;;;;;;11.43;3.70;;;11.90;99.90;;;;;;5032258;28;20442;-78
2023/06/06 01:12:14;;;;;;;9.70;4.20;;;11.90;99.90;;;;;;5011790;28;20026;-78
2023/06/06 01:14:51;;;;;;;7.80;4.25;;;11.90;99.90;;;;;;4999525;28;20449;-78
2023/06/06 01:17:19;;;;;;;;;;;11.90;99.90;;;;;;5016213;28;20501;-79
2023/06/06 01:19:49;;;;;;;5.95;3.33;;;11.90;99.90;;;;;;5014953;28;20385;-78
2023/06/06 01:22:22;;;;;;;10.32;4.28;;;11.90;99.90;;;;;;5015721;28;20022;-78
2023/06/06 01:24:50;;;;;;;6.00;4.05;;;11.90;99.90;;;;;;5013018;28;20049;-78
2023/06/06 01:27:16;;;;;;;8.55;4.32;;;11.90;99.90;;;;;;5015339;28;20486;-79
2023/06/06 01:29:41;;;;;;;8.20;3.45;;;11.90;99.90;;;;;;5013681;28;20088;-80
2023/06/06 01:32:26;;;;;;;11.05;4.10;;;11.90;99.90;;;;;;5014226;28;20171;-79
2023/06/06 01:35:10;;;;;;;7.15;3.30;;;11.80;99.90;;;;;;5014432;28;20037;-79
2023/06/06 01:37:46;;;;;;;6.63;3.83;;;11.80;99.90;;;;;;5015350;28;20076;-78
2023/06/06 01:40:14;;;;;;;5.50;3.53;;;11.80;99.90;;;;;;5013252;28;20213;-78
2023/06/06 01:42:45;;;;;;;5.35;3.72;;;11.70;99.90;;;;;;5014059;28;20030;-78
2023/06/06 01:45:14;;;;;;;9.20;3.90;;;11.70;99.90;;;;;;5014672;28;20026;-79
2023/06/06 01:47:41;;;;;;;8.90;3.58;;;11.70;99.90;;;;;;5015125;28;20137;-78
2023/06/06 01:50:08;;;;;;;6.57;3.67;;;11.70;99.90;;;;;;5014403;28;20084;-79
2023/06/06 01:52:37;;;;;;;11.05;3.83;;;11.70;99.90;;;;;;5013750;28;20037;-79
2023/06/06 01:55:05;;;;;;;4.95;3.67;;;11.70;99.90;;;;;;5014563;28;20038;-79
2023/06/06 01:57:34;;;;;;;11.18;5.68;;;11.70;99.90;;;;;;5014284;28;20022;-78
2023/06/06 02:00:00;;;;;;;7.57;3.38;;;11.70;99.90;;;;;;5011157;28;20046;-78
2023/06/06 02:02:27;;;;;;;10.35;3.88;;;11.60;99.90;;;;;;5013587;28;20379;-79
2023/06/06 02:04:53;;;;;;;10.25;3.60;;;11.60;99.90;;;;;;5013142;28;20470;-78
2023/06/06 02:07:19;;;;;;;5.00;3.25;;;11.50;99.90;;;;;;5013316;28;20125;-78
2023/06/06 02:09:45;;;;;;;9.15;3.55;;;11.50;99.90;;;;;;5014050;28;20441;-78
2023/06/06 02:12:11;;;;;;;12.80;4.18;;;11.60;99.90;;;;;;5014649;28;20041;-77
2023/06/06 02:14:37;;;;;;;14.88;3.90;;;11.60;99.90;;;;;;5013871;28;20022;-78
2023/06/06 02:17:03;;;;;;;7.22;4.00;;;11.60;99.90;;;;;;5013191;28;20033;-79
2023/06/06 02:19:32;;;;;;;8.27;3.55;;;11.50;99.90;;;;;;5013573;28;20386;-78
2023/06/06 02:21:58;;;;;;;11.88;3.78;;;11.60;99.90;;;;;;5014851;28;20037;-79
2023/06/06 02:24:27;;;;;;;7.65;3.95;;;11.50;99.90;;;;;;5012982;28;20034;-78
2023/06/06 02:26:57;;;;;;;7.45;4.07;;;11.50;99.90;;;;;;5013619;28;20505;-79
2023/06/06 02:29:23;;;;;;;7.80;3.45;;;11.40;99.90;;;;;;5013265;28;20041;-80
2023/06/06 02:31:56;;;;;;;12.57;4.65;;;11.40;99.90;;;;;;5013000;28;20044;-77
2023/06/06 02:34:24;;;;;;;9.73;3.35;;;11.40;99.90;;;;;;5013922;28;20124;-79
2023/06/06 02:36:51;;;;;;;5.55;2.95;;;11.50;99.90;;;;;;5013052;28;20064;-79
2023/06/06 02:39:16;;;;;;;10.48;3.60;;;11.50;99.90;;;;;;5013891;28;20033;-79
2023/06/06 02:41:42;;;;;;;12.35;3.58;;;11.50;99.90;;;;;;5013747;28;20029;-78
2023/06/06 02:44:08;;;;;;;4.60;2.92;;;11.50;99.90;;;;;;5014461;28;20034;-79
2023/06/06 02:46:33;;;;;;;12.68;3.97;;;11.50;99.90;;;;;;5013161;28;20025;-80
2023/06/06 02:48:59;;;;;;;6.20;3.38;;;11.50;99.90;;;;;;5013033;28;20073;-80
2023/06/06 02:51:27;;;;;;;6.82;3.33;;;11.50;99.90;;;;;;5013303;28;20035;-80
2023/06/06 02:53:52;;;;;;;7.30;3.38;;;11.50;99.90;;;;;;5014183;28;20505;-80
2023/06/06 02:56:19;;;;;;;6.05;3.17;;;11.50;99.90;;;;;;5011689;28;20056;-79
2023/06/06 02:58:44;;;;;;;5.30;2.97;;;11.50;99.90;;;;;;5014228;28;20157;-80
2023/06/06 03:01:14;;;;;;;6.90;3.58;;;11.50;99.90;;;;;;5012854;28;20116;-78
2023/06/06 03:03:40;;;;;;;5.43;2.72;;;11.50;99.90;;;;;;5014031;28;20057;-78
2023/06/06 03:06:06;;;;;;;13.85;4.28;;;11.40;99.90;;;;;;5012029;28;20109;-78
2023/06/06 03:08:33;;;;;;;11.05;3.97;;;11.40;99.90;;;;;;5033958;28;20454;-79
2023/06/06 03:10:59;;;;;;;8.27;3.65;;;11.40;99.90;;;;;;5017904;28;20057;-79
2023/06/06 03:13:24;;;;;;;4.82;3.10;;;11.30;99.90;;;;;;5013921;28;20060;-79
2023/06/06 03:15:50;;;;;;;9.73;3.63;;;11.30;99.90;;;;;;5011473;28;20042;-78
2023/06/06 03:18:20;;;;;;;9.02;3.42;;;11.30;99.90;;;;;;5012529;28;20029;-79
2023/06/06 03:20:46;;;;;;;6.80;3.65;;;11.30;99.90;;;;;;5012596;28;20640;-79
2023/06/06 03:23:13;;;;;;;8.55;3.00;;;11.30;99.90;;;;;;5012901;28;20025;-77
2023/06/06 03:25:43;;;;;;;8.73;3.60;;;11.30;99.90;;;;;;5013110;28;20030;-79
2023/06/06 03:28:12;;;;;;;6.00;3.60;;;11.30;99.90;;;;;;5013769;28;20041;-78
2023/06/06 03:30:38;;;;;;;6.47;2.92;;;11.20;99.90;;;;;;5013927;28;20045;-79
2023/06/06 03:33:08;;;;;;;10.90;3.80;;;11.20;99.90;;;;;;5013170;28;20164;-79
2023/06/06 03:35:34;;;;;;;5.75;3.13;;;11.20;99.90;;;;;;5013426;28;20037;-79
2023/06/06 03:38:01;;;;;;;13.02;3.58;;;11.20;99.90;;;;;;5013073;28;20521;-79
2023/06/06 03:40:27;;;;;;;7.97;3.25;;;11.20;99.90;;;;;;5013046;28;20389;-78
2023/06/06 03:42:53;;;;;;;5.45;3.45;;;11.20;99.90;;;;;;5013348;28;20030;-79
2023/06/06 03:45:22;;;;;;;7.80;2.78;;;11.20;99.90;;;;;;5011912;28;20434;-78
2023/06/06 03:47:49;;;;;;;10.35;3.33;;;11.20;99.90;;;;;;5012520;28;20084;-79
2023/06/06 03:50:15;;;;;;;8.85;3.03;;;11.20;99.90;;;;;;5012022;28;20030;-80
2023/06/06 03:52:42;;;;;;;7.85;3.13;;;11.20;99.90;;;;;;5013895;28;20459;-78
2023/06/06 03:55:09;;;;;;;8.85;3.35;;;11.30;99.90;;;;;;5012998;28;20053;-78
2023/06/06 03:57:35;;;;;;;9.10;3.47;;;11.30;99.90;;;;;;5010626;28;20041;-79
2023/06/06 04:00:13;;;;;;;13.57;3.53;;;11.30;99.90;;;;;;4998612;28;20085;-78
2023/06/06 04:02:46;;;;;;;5.18;3.03;;;11.20;99.90;;;;;;5015950;28;20030;-78
2023/06/06 04:05:12;;;;;;;7.70;3.08;;;11.20;99.90;;;;;;5015781;28;20069;-79
2023/06/06 04:07:39;;;;;;;10.60;3.70;;;11.20;99.90;;;;;;5029870;28;20029;-79
2023/06/06 04:10:06;;;;;;;6.63;3.37;;;11.30;99.90;;;;;;5011101;28;20054;-79
2023/06/06 04:12:32;;;;;;;7.32;3.25;;;11.30;99.90;;;;;;4979136;28;20166;-80
2023/06/06 04:14:58;;;;;;;10.68;2.63;;;11.30;99.90;;;;;;4995119;28;20422;-79
2023/06/06 04:17:24;;;;;;;9.57;3.33;;;11.30;99.90;;;;;;4992403;28;20058;-79
2023/06/06 04:19:51;;;;;;;6.55;3.00;;;11.30;99.90;;;;;;4994485;28;20084;-77
2023/06/06 04:22:19;;;;;;;4.97;3.20;;;11.30;99.90;;;;;;4994822;28;20038;-78
2023/06/06 04:24:46;;;;;;;11.80;3.35;;;11.40;99.90;;;;;;4978508;28;20042;-79
2023/06/06 04:27:12;;;;;;;7.70;3.15;;;11.40;99.90;;;;;;4973453;28;20049;-78
2023/06/06 04:29:40;;;;;;;8.95;3.20;;;11.50;99.90;;;;;;4975286;28;20042;-78
2023/06/06 04:32:08;;;;;;;11.00;3.17;;;11.50;99.90;;;;;;4974489;28;20177;-78
2023/06/06 04:34:39;;;;;;;7.15;3.22;;;11.50;99.90;;;;;;4959389;28;20607;-79
2023/06/06 04:37:05;;;;;;;8.20;2.95;;;11.50;99.90;;;;;;4974424;28;20483;-78
2023/06/06 04:39:35;;;;;;;5.60;3.17;;;11.50;99.90;;;;;;4974433;28;20546;-78
2023/06/06 04:42:04;;;;;;;8.55;3.28;;;11.60;99.90;;;;;;5008974;28;20093;-79
2023/06/06 04:44:33;;;;;;;10.27;3.63;;;11.60;99.90;;;;;;4997704;28;20375;-79
2023/06/06 04:47:01;;;;;;;14.95;3.22;;;11.70;99.90;;;;;;5013610;28;20088;-79
2023/06/06 04:49:35;;;;;;;6.13;3.15;;;11.70;99.90;;;;;;5014312;28;20030;-79
2023/06/06 04:52:05;;;;;;;8.60;3.75;;;11.70;99.90;;;;;;5011622;28;20506;-79
2023/06/06 04:54:34;;;;;;;6.50;3.22;;;11.80;99.90;;;;;;5013954;28;20053;-80
2023/06/06 04:57:00;;;;;;;5.85;3.08;;;11.90;99.90;;;;;;5013089;28;20050;-80
2023/06/06 04:59:27;;;;;;;10.07;3.97;;;12.00;99.90;;;;;;5017190;28;20487;-79
2023/06/06 05:01:55;;;;;;;16.13;4.10;;;12.00;99.90;;;;;;5016236;28;20056;-79
2023/06/06 05:04:20;;;;;;;;;;;12.00;99.90;;;;;;5033411;28;20037;-79
2023/06/06 05:06:46;;;;;;;9.63;3.80;;;12.10;99.90;;;;;;5016760;28;19909;-79
2023/06/06 05:09:12;;;;;;;5.97;2.85;;;12.20;99.90;;;;;;5033387;28;20440;-79
2023/06/06 05:11:38;;;;;;;7.78;3.45;;;12.20;99.90;;;;;;5032732;28;20038;-78
2023/06/06 05:14:04;;;;;;;8.35;3.45;;;12.30;99.90;;;;;;5030675;28;20033;-78
2023/06/06 05:16:30;;;;;;;5.88;3.10;;;12.30;99.90;;;;;;5033540;28;20103;-80
2023/06/06 05:18:57;;;;;;;5.90;3.50;;;12.40;99.90;;;;;;5033523;28;20505;-79
2023/06/06 05:21:22;;;;;;;7.05;3.03;;;12.40;99.90;;;;;;5015866;28;20022;-79
2023/06/06 05:23:48;;;;;;;9.40;3.75;;;12.50;99.90;;;;;;5033592;28;20494;-79
2023/06/06 05:26:14;;;;;;;8.23;3.83;;;12.60;99.90;;;;;;5016459;28;20033;-78
2023/06/06 05:28:40;;;;;;;7.00;3.28;;;12.60;99.90;;;;;;5019322;28;20081;-78
2023/06/06 05:31:07;;;;;;;13.02;3.70;;;12.70;99.90;;;;;;5015078;28;20021;-80
2023/06/06 05:33:42;;;;;;;7.10;3.50;;;12.70;99.90;;;;;;5015489;28;20477;-81
2023/06/06 05:36:08;;;;;;;11.10;4.07;;;12.70;99.90;;;;;;5014688;28;20030;-77
2023/06/06 05:38:33;;;;;;;8.93;3.63;;;12.80;99.90;;;;;;5015612;28;20105;-78
2023/06/06 05:40:59;;;;;;;15.05;3.75;;;12.90;99.90;;;;;;5014928;28;20129;-78
2023/06/06 05:43:30;;;;;;;7.95;3.45;;;12.90;99.90;;;;;;5015078;28;20034;-78
2023/06/06 05:45:56;;;;;;;9.57;3.10;;;12.90;99.90;;;;;;5015492;28;20478;-77
2023/06/06 05:48:22;;;;;;;7.88;2.97;;;13.00;99.90;;;;;;5015337;28;20129;-78
2023/06/06 05:50:48;;;;;;;5.20;2.97;;;13.20;99.90;;;;;;5022642;28;20109;-80
2023/06/06 05:53:14;;;;;;;4.43;2.92;;;13.20;99.90;;;;;;5015023;28;20049;-80
2023/06/06 05:55:40;;;;;;;5.28;3.33;;;13.30;99.90;;;;;;5015525;28;20034;-80
2023/06/06 05:58:07;;;;;;;8.52;3.30;;;13.30;99.90;;;;;;5013009;28;20044;-79
2023/06/06 06:00:34;;;;;;;10.10;3.75;;;13.40;99.90;;;;;;5028659;28;20026;-79
2023/06/06 06:03:01;;;;;;;9.70;3.88;;;13.50;99.90;;;;;;5001815;28;20034;-79
2023/06/06 06:05:28;;;;;;;9.55;3.15;;;13.70;99.90;;;;;;5013434;28;20026;-79
2023/06/06 06:08:01;;;;;;;7.47;3.60;;;13.80;99.90;;;;;;5010736;28;20049;-79
2023/06/06 06:10:33;;;;;;;5.50;3.28;;;13.80;99.90;;;;;;5013650;28;20490;-79
2023/06/06 06:13:00;;;;;;;8.77;3.45;;;13.90;99.90;;;;;;5012806;28;20168;-80
2023/06/06 06:15:26;;;;;;;8.27;2.90;;;14.00;99.90;;;;;;5013251;28;20120;-78
2023/06/06 06:17:52;;;;;;;15.98;3.63;;;13.90;99.90;;;;;;5015398;28;20056;-80
2023/06/06 06:20:19;;;;;;;5.75;3.38;;;14.10;99.90;;;;;;5025197;28;21017;-79
2023/06/06 06:22:47;;;;;;;11.55;3.63;;;14.40;99.90;;;;;;5015028;28;20149;-79
2023/06/06 06:25:13;;;;;;;7.72;2.85;;;15.00;99.90;;;;;;5014811;28;20030;-77
2023/06/06 06:27:41;;;;;;;15.93;3.58;;;15.70;99.90;;;;;;5014567;28;20040;-79
2023/06/06 06:30:09;;;;;;;13.65;3.10;;;15.90;99.90;;;;;;5014895;28;20116;-79
2023/06/06 06:32:36;;;;;;;7.18;3.13;;;15.80;99.90;;;;;;5013739;28;20529;-78
2023/06/06 06:35:05;;;;;;;7.00;2.97;;;15.70;99.90;;;;;;5014944;28;20058;-79
2023/06/06 06:37:37;;;;;;;5.78;3.22;;;15.50;99.90;;;;;;5013906;28;20033;-79
2023/06/06 06:40:09;;;;;;;10.23;3.38;;;15.40;99.90;;;;;;5013278;28;20030;-80
2023/06/06 06:42:40;;;;;;;8.65;3.25;;;15.40;99.90;;;;;;5012661;28;20126;-80
2023/06/06 06:45:13;;;;;;;8.05;2.95;;;15.50;99.90;;;;;;5014857;28;20060;-79
2023/06/06 06:47:40;;;;;;;5.82;3.17;;;15.70;99.90;;;;;;5014594;28;20038;-78
2023/06/06 06:50:06;;;;;;;14.52;3.13;;;15.90;99.90;;;;;;5013054;28;20022;-78
2023/06/06 06:52:35;;;;;;;10.85;3.33;;;16.10;99.90;;;;;;5011608;28;20040;-79
2023/06/06 06:55:03;;;;;;;7.25;3.33;;;16.10;99.90;;;;;;5009594;28;20022;-79
2023/06/06 06:57:29;;;;;;;;;;;16.20;99.90;;;;;;5024052;28;20019;-79
2023/06/06 07:00:11;;;;;;;7.05;2.85;;;16.40;99.90;;;;;;5008825;28;19916;-81
2023/06/06 07:02:39;;;;;;;4.78;2.67;;;16.90;99.90;;;;;;5010561;28;20022;-81
2023/06/06 07:05:06;;;;;;;10.43;3.40;;;18.00;99.90;;;;;;5012866;28;20083;-75
2023/06/06 07:07:31;;;;;;;13.30;2.87;;;19.10;99.90;;;;;;5013840;28;20367;-75
2023/06/06 07:09:57;;;;;;;10.25;3.47;;;19.90;99.90;;;;;;5010530;28;20029;-76
2023/06/06 07:12:23;;;;;;;5.53;2.97;;;20.30;99.90;;;;;;5011102;28;20034;-76
2023/06/06 07:14:50;;;;;;;5.05;2.05;;;20.70;99.90;;;;;;5013274;28;20092;-77
2023/06/06 07:17:16;;;;;;;4.88;2.33;;;20.60;99.90;;;;;;5009536;28;20528;-77
2023/06/06 07:19:44;;;;;;;7.90;2.97;;;20.40;99.90;;;;;;5013872;28;20026;-77
2023/06/06 07:22:10;;;;;;;6.82;2.80;;;20.30;99.90;;;;;;5015878;28;20029;-77
2023/06/06 07:24:36;;;;;;;4.35;2.53;;;20.30;99.90;;;;;;5012695;28;20048;-77
2023/06/06 07:27:04;;;;;;;7.30;2.25;;;20.20;99.90;;;;;;5008344;28;20034;-77
2023/06/06 07:29:30;;;;;;;8.40;2.72;;;20.60;99.90;;;;;;5028753;28;20104;-80
2023/06/06 07:31:56;;;;;;;7.75;2.60;;;20.90;99.90;;;;;;5018265;28;20385;-77
2023/06/06 07:34:22;;;;;;;3.92;2.45;;;21.10;99.90;;;;;;5018088;28;20121;-78
2023/06/06 07:36:48;;;;;;;4.82;2.47;;;21.10;99.90;;;;;;5018344;28;20025;-78
2023/06/06 07:39:14;;;;;;;6.45;2.30;;;21.20;99.90;;;;;;5016841;28;20018;-78
2023/06/06 07:41:40;;;;;;;3.67;2.30;;;20.60;99.90;;;;;;5016539;28;20041;-79
2023/06/06 07:44:06;;;;;;;5.43;2.42;;;19.70;99.90;;;;;;5014990;28;20038;-79
2023/06/06 07:46:32;;;;;;;3.13;2.10;;;19.20;99.90;;;;;;5017315;28;20541;-79
2023/06/06 07:48:58;;;;;;;5.15;2.60;;;18.70;99.90;;;;;;5015809;28;20121;-77
2023/06/06 07:51:25;;;;;;;9.57;2.22;;;18.40;99.90;;;;;;5019107;28;20036;-78
2023/06/06 07:53:52;;;;;;;6.15;2.42;;;18.30;99.90;;;;;;5016002;28;20374;-81
2023/06/06 07:56:23;;;;;;;5.20;2.33;;;18.40;99.90;;;;;;5015860;28;20394;-81
2023/06/06 07:58:53;;;;;;;8.20;2.92;;;18.50;99.90;;;;;;5039135;28;20088;-81
2023/06/06 08:01:20;;;;;;;5.03;1.90;;;18.60;99.90;;;;;;5020666;28;20046;-78
2023/06/06 08:03:49;;;;;;;3.43;2.20;;;18.90;99.90;;;;;;5018940;28;20022;-78
2023/06/06 08:06:17;;;;;;;5.75;1.98;;;18.80;99.90;;;;;;5022835;28;20292;-78
2023/06/06 08:08:45;;;;;;;4.00;2.42;;;18.60;99.90;;;;;;5016516;28;20025;-79
2023/06/06 08:11:14;;;;;;;7.82;2.30;;;18.50;99.90;;;;;;5035299;28;20367;-78
2023/06/06 08:13:40;;;;;;;3.83;2.28;;;18.70;99.90;;;;;;5032509;28;20046;-79
2023/06/06 08:16:06;;;;;;;5.03;2.97;;;18.70;99.90;;;;;;5015954;28;20463;-80
2023/06/06 08:18:31;;;;;;;4.00;2.60;;;18.70;99.90;;;;;;5017005;28;20109;-79
2023/06/06 08:20:57;;;;;;;4.95;2.38;;;18.90;99.90;;;;;;5016483;28;20030;-78
2023/06/06 08:23:23;;;;;;;4.93;2.13;;;19.10;99.90;;;;;;5016593;28;20037;-79
2023/06/06 08:25:55;;;;;;;6.97;3.38;;;19.40;99.90;;;;;;5015180;28;20056;-79
2023/06/06 08:28:24;;;;;;;5.38;2.28;;;19.20;99.90;;;;;;5016743;28;20045;-79
2023/06/06 08:30:51;;;;;;;6.30;3.00;;;19.10;99.90;;;;;;5029222;28;20068;-79
2023/06/06 08:33:17;;;;;;;7.47;2.40;;;19.10;99.90;;;;;;5035562;28;20056;-80
2023/06/06 08:35:44;;;;;;;5.72;2.13;;;19.20;99.90;;;;;;5036472;28;20036;-80
2023/06/06 08:38:10;;;;;;;5.95;2.17;;;19.50;99.90;;;;;;5000240;28;20030;-79
2023/06/06 08:40:36;;;;;;;7.38;2.45;;;19.90;99.90;;;;;;5005051;28;20037;-80
2023/06/06 08:43:03;;;;;;;5.18;2.42;;;20.00;99.90;;;;;;5015107;28;20018;-79
2023/06/06 08:45:29;;;;;;;;;;;19.90;99.90;;;;;;5016625;28;20107;-79
2023/06/06 08:47:55;;;;;;;3.92;2.15;;;19.90;99.90;;;;;;5016398;28;19996;-78
2023/06/06 08:50:23;;;;;;;4.93;2.15;;;20.00;99.90;;;;;;5016551;28;20112;-79
2023/06/06 08:52:50;;;;;;;7.13;2.72;;;20.00;99.90;;;;;;5016407;28;20029;-78
2023/06/06 08:55:16;;;;;;;7.30;2.40;;;20.10;99.90;;;;;;5001701;28;20072;-77
2023/06/06 08:57:43;;;;;;;7.35;2.65;;;20.10;99.90;;;;;;5016249;28;20026;-77
2023/06/06 09:00:20;;;;;;;7.68;2.08;;;20.10;99.90;;;;;;5012696;28;20075;-78
2023/06/06 09:02:47;;;;;;;3.25;2.20;;;19.80;99.90;;;;;;5015083;28;20033;-77
2023/06/06 09:05:17;;;;;;;7.88;3.20;;;19.80;99.90;;;;;;5012827;28;20121;-76
2023/06/06 09:07:43;;;;;;;7.30;2.40;;;19.80;99.90;;;;;;5011398;28;20385;-78
2023/06/06 09:10:09;;;;;;;6.65;2.60;;;20.20;99.90;;;;;;5011213;28;20034;-76
2023/06/06 09:12:41;;;;;;;4.13;2.58;;;20.40;99.90;;;;;;5016722;28;20391;-79
2023/06/06 09:15:08;;;;;;;5.32;2.47;;;20.40;99.90;;;;;;5014923;28;20029;-78
2023/06/06 09:17:38;;;;;;;11.68;2.85;;;20.40;99.90;;;;;;5012633;28;20025;-79
2023/06/06 09:20:12;;;;;;;7.13;2.60;;;20.20;99.90;;;;;;5014302;28;20025;-78
2023/06/06 09:22:39;;;;;;;3.42;2.40;;;20.00;99.90;;;;;;5014251;28;20386;-79
2023/06/06 09:25:05;;;;;;;7.00;2.70;;;19.90;99.90;;;;;;5012340;28;20025;-73
2023/06/06 09:27:32;;;;;;;10.07;3.38;;;19.80;99.90;;;;;;5009639;28;20087;-72
2023/06/06 09:29:58;;;;;;;4.22;2.35;;;19.60;99.90;;;;;;5013331;28;20034;-77
2023/06/06 09:32:30;;;;;;;6.22;2.55;;;19.60;99.90;;;;;;5010905;28;20038;-71
2023/06/06 09:35:05;;;;;;;13.43;2.85;;;19.80;99.90;;;;;;5011386;28;20037;-75
2023/06/06 09:37:32;;;;;;;3.70;2.80;;;19.90;99.90;;;;;;5010907;28;20397;-81
2023/06/06 09:40:12;;;;;;;7.97;3.20;;;20.00;99.90;;;;;;5011652;28;20352;-82
2023/06/06 09:42:40;;;;;;;12.00;3.25;;;20.00;99.90;;;;;;5006843;28;20021;-81
2023/06/06 09:45:12;;;;;;;10.20;3.03;;;19.80;99.90;;;;;;5015151;28;20021;-77
2023/06/06 09:47:45;;;;;;;8.65;2.85;;;19.70;99.90;;;;;;5010260;28;20041;-82
2023/06/06 09:50:13;;;;;;;4.20;2.92;;;19.70;99.90;;;;;;5016020;28;20030;-80
2023/06/06 09:52:40;;;;;;;5.00;3.05;;;19.80;99.90;;;;;;5008935;28;20148;-78
2023/06/06 09:55:12;;;;;;;13.75;3.63;;;19.90;99.90;;;;;;5012039;28;20030;-82
2023/06/06 09:57:40;;;;;;;7.55;3.55;;;19.80;99.90;;;;;;5015346;28;20022;-78
2023/06/06 10:00:10;;;;;;;6.38;3.42;;;19.80;99.90;;;;;;5015661;28;20033;-77
2023/06/06 10:02:43;;;;;;;8.50;3.33;;;19.80;99.90;;;;;;5015143;28;20431;-80
2023/06/06 10:05:15;;;;;;;7.82;2.88;;;19.90;99.90;;;;;;5001664;28;20030;-82
2023/06/06 10:07:44;;;;;;;8.18;3.55;;;20.30;99.90;;;;;;5015170;28;20025;-81
2023/06/06 10:10:17;;;;;;;6.72;3.55;;;20.50;99.90;;;;;;5012962;28;20034;-77
2023/06/06 10:12:43;;;;;;;8.10;3.28;;;20.30;99.90;;;;;;5010845;28;20026;-82
2023/06/06 10:15:13;;;;;;;6.00;3.13;;;20.40;99.90;;;;;;5013213;28;20067;-78
2023/06/06 10:17:41;;;;;;;12.25;3.75;;;20.50;99.90;;;;;;5010114;28;20285;-80
2023/06/06 10:20:12;;;;;;;7.20;3.90;;;20.50;99.90;;;;;;5016833;28;20026;-80
2023/06/06 10:22:58;;;;;;;8.40;3.95;;;20.70;99.90;;;;;;5010986;28;20082;-81
2023/06/06 10:25:23;;;;;;;6.00;3.03;;;20.70;99.90;;;;;;5012658;28;20026;-81
2023/06/06 10:28:09;;;;;;;10.13;4.20;;;20.90;99.90;;;;;;5015841;28;20060;-80
2023/06/06 10:30:45;;;;;;;9.38;3.65;;;21.10;99.90;;;;;;5011897;28;20044;-81
2023/06/06 10:33:28;;;;;;;6.63;2.78;;;21.10;99.90;;;;;;5018776;28;20055;-81
2023/06/06 10:35:57;;;;;;;6.70;3.20;;;21.10;99.90;;;;;;5015792;28;20061;-81
2023/06/06 10:38:23;;;;;;;8.43;4.30;;;20.80;99.90;;;;;;5015042;28;20014;-78
2023/06/06 10:40:56;;;;;;;9.52;3.60;;;20.60;99.90;;;;;;5000208;28;20268;-77
2023/06/06 10:43:34;;;;;;;11.20;3.75;;;20.70;99.90;;;;;;5013052;28;20033;-78
2023/06/06 10:46:05;;;;;;;8.73;4.03;;;20.70;99.90;;;;;;5011326;28;20087;-79
2023/06/06 10:48:53;;;;;;;10.82;3.05;;;20.60;99.90;;;;;;5011331;28;20037;-77
2023/06/06 10:51:39;;;;;;;10.52;3.22;;;20.70;99.90;;;;;;5011753;28;20426;-77
2023/06/06 10:54:21;;;;;;;9.00;3.70;;;20.80;99.90;;;;;;4994632;28;20038;-76
2023/06/06 10:56:52;;;;;;;7.82;4.53;;;20.90;99.90;;;;;;5005705;28;20080;-78
2023/06/06 10:59:25;;;;;;;7.10;3.63;;;20.90;99.90;;;;;;5030111;28;20026;-75
2023/06/06 11:01:53;;;;;;;8.98;3.15;;;20.90;99.90;;;;;;5013895;28;20164;-75
2023/06/06 11:04:23;;;;;;;12.45;4.68;;;20.90;99.90;;;;;;5013495;28;20079;-75
2023/06/06 11:06:51;;;;;;;8.48;3.45;;;20.90;99.90;;;;;;5013165;28;20116;-76
2023/06/06 11:09:19;;;;;;;7.90;3.85;;;20.90;99.90;;;;;;5014976;28;20382;-76
2023/06/06 11:11:45;;;;;;;10.68;4.10;;;20.90;99.90;;;;;;5011838;28;20026;-75
2023/06/06 11:14:11;;;;;;;3.78;3.15;;;21.10;99.90;;;;;;5013395;28;20054;-73
2023/06/06 11:16:39;;;;;;;6.10;2.90;;;21.30;99.90;;;;;;5011979;28;20498;-75
2023/06/06 11:19:15;;;;;;;6.07;3.22;;;21.20;99.90;;;;;;5012711;28;20026;-75
2023/06/06 11:21:42;;;;;;;15.63;3.63;;;21.20;99.90;;;;;;5011135;28;20026;-75
2023/06/06 11:24:10;;;;;;;9.98;3.55;;;21.20;99.90;;;;;;5013428;28;20041;-75
2023/06/06 11:26:41;;;;;;;7.18;2.97;;;21.40;99.90;;;;;;5015116;28;20026;-76
2023/06/06 11:29:09;;;;;;;4.82;3.25;;;21.50;99.90;;;;;;5008357;28;20426;-77
2023/06/06 11:31:38;;;;;;;7.57;3.58;;;21.60;99.90;;;;;;5012971;28;20057;-76
2023/06/06 11:34:11;;;;;;;5.78;3.15;;;21.60;99.90;;;;;;5015141;28;20386;-76
2023/06/06 11:36:42;;;;;;;6.50;3.05;;;21.60;99.90;;;;;;5012367;28;20433;-75
2023/06/06 11:39:14;;;;;;;5.50;3.10;;;21.60;99.90;;;;;;5022781;28;20022;-76
2023/06/06 11:41:47;;;;;;;8.30;3.90;;;21.60;99.90;;;;;;5034612;28;20056;-76
2023/06/06 11:44:16;;;;;;;7.15;3.60;;;21.60;99.90;;;;;;5034141;28;20041;-76
2023/06/06 11:46:48;;;;;;;8.85;3.83;;;21.60;99.90;;;;;;5036772;28;20002;-75
2023/06/06 11:49:14;;;;;;;9.57;4.13;;;21.50;99.90;;;;;;5036045;28;20022;-76
2023/06/06 11:51:40;;;;;;;5.75;3.60;;;21.70;99.90;;;;;;5036029;28;20022;-76
2023/06/06 11:54:17;;;;;;;7.35;2.95;;;21.90;99.90;;;;;;5034383;28;21487;-77
2023/06/06 11:56:43;;;;;;;6.35;3.13;;;22.00;99.90;;;;;;5046684;28;20045;-77
2023/06/06 11:59:14;;;;;;;4.18;3.35;;;22.20;99.90;;;;;;5035599;28;20034;-77
2023/06/06 12:01:50;;;;;;;8.48;3.67;;;22.20;99.90;;;;;;5033443;28;20021;-75
2023/06/06 12:04:20;;;;;;;7.72;3.53;;;22.20;99.90;;;;;;5011341;28;20394;-78
2023/06/06 12:06:56;;;;;;;7.15;3.40;;;22.10;99.90;;;;;;5011925;28;20033;-75
2023/06/06 12:09:24;;;;;;;9.07;3.10;;;22.10;99.90;;;;;;5013076;28;20021;-77
2023/06/06 12:11:59;;;;;;;8.15;3.65;;;22.10;99.90;;;;;;5011463;28;20394;-76
2023/06/06 12:14:26;;;;;;;6.85;3.58;;;22.20;99.90;;;;;;5010406;28;20136;-77
2023/06/06 12:16:53;;;;;;;5.15;2.92;;;22.30;99.90;;;;;;5011791;28;20206;-76
2023/06/06 12:19:19;;;;;;;4.60;3.10;;;22.30;99.90;;;;;;5020585;28;20038;-77
2023/06/06 12:21:51;;;;;;;5.35;4.07;;;22.40;99.90;;;;;;5035041;28;20402;-77
2023/06/06 12:24:27;;;;;;;7.32;3.05;;;22.30;99.90;;;;;;5018238;28;20053;-77
2023/06/06 12:26:59;;;;;;;7.13;2.83;;;22.30;99.90;;;;;;5017944;28;20034;-77
2023/06/06 12:29:26;;;;;;;8.65;3.40;;;22.30;99.90;;;;;;5019896;28;20080;-76
2023/06/06 12:32:21;;;;;;;8.02;3.47;;;22.40;99.90;;;;;;5019463;28;20044;-76
2023/06/06 12:34:59;;;;;;;11.05;2.88;;;22.30;99.90;;;;;;5021049;28;20038;-77
2023/06/06 12:37:35;;;;;;;7.18;3.53;;;22.30;99.90;;;;;;5021034;28;20026;-78
2023/06/06 12:40:07;;;;;;;5.03;2.78;;;22.20;99.90;;;;;;5019857;28;20502;-78
2023/06/06 12:42:33;;;;;;;6.50;3.10;;;22.30;99.90;;;;;;5019683;28;20052;-78
2023/06/06 12:44:59;;;;;;;6.32;2.90;;;22.30;99.90;;;;;;5023302;28;20037;-78
2023/06/06 12:47:25;;;;;;;5.03;2.85;;;22.30;99.90;;;;;;5019651;28;20056;-77
2023/06/06 12:49:51;;;;;;;9.02;4.38;;;22.30;99.90;;;;;;5021436;28;20116;-78
2023/06/06 12:52:17;;;;;;;7.20;2.70;;;22.40;99.90;;;;;;5020070;28;20068;-76